Tenerife Sur, Canary Islands

05:43 AM WEST del 22 Ottobre 2014 (GMT +0100)
Reina Sofia | Change Station
CLOSE
Current Station
Aeroporto
Location: Tenerife Sur,
Altitudine: 253 ft
Stazioni meteo nelle vicinanze

Alt. 253 ft 28.05 °N, 16.56 °W | Updated 13 minutes ago

Partly Cloudy
Parzialmente nuvoloso
84 °F
Sembra 84 °F
N
23
Vento Variabile Vento da ENE

Oggi
Massima -- | Minima -- °F
--% Possibilità di precip.
Ieri
Massima -- | Minima -- °F
Precip. -- in
8:10 AM 7:30 PM
Luna calante, 3% visible
Pressione 30.09 in
Visibilità 6.2 miglia
Nuvole Alcuni 3000 ft
Punto di rugiada 52 °F
Umidità 33%
Piovosità 0.00 in
Spessore del manto nevoso Non disponibile.
Raggi UV 0 fuori da 12
Polline Non disponibile.
Qualità dell'aria Non disponibile.
Flu Activity Non disponibile.
METAR GCTS 220430Z 06020KT 9999 FEW030 29/11 Q1019 NOSIG

More Conditions Fewer Conditions

Pressione 30.09 in
Visibilità 6.2 miglia
Nuvole Alcuni 3000 ft
Punto di rugiada 52 °F
Umidità 33%
Piovosità 0.00 in
Spessore del manto nevoso Non disponibile.
Raggi UV 0 fuori da 12
Polline Non disponibile.
Qualità dell'aria Non disponibile.
Flu Activity Non disponibile.
METAR GCTS 220430Z 06020KT 9999 FEW030 29/11 Q1019 NOSIG

More Conditions Fewer Conditions

10-Day Weather Forecast

Almanac

Astronomia

Oct. 22, 2014 Alba Tramonto
Ora attuale 08:10 WEST 19:30 WEST
Crepuscolo civile 07:46 WEST 19:54 WEST
Crepuscolo nautico 07:19 WEST 20:21 WEST
Crepuscolo astronomico 06:52 WEST 20:48 WEST
Luna 06:47 WEST 18:45 WEST
Estensione della luce visibile 12h 07m
Lunghezza del giorno
11h 19m
Tomorrow will be 1m 32s shorter.
Luna calante, 3% of the Moon is Illuminated
Oggi
Luna calante
Ott 23
Nuovo
Ott 30
Primo quarto
Nov 6
Luna piena
Nov 14
Ultimo quarto

Minime e massime di ieri

Massime Regione Minime Regione

Community

WunderPhotos

Upload Photos

1,763,882 foto caricate!

Nearby

Qualità dell'aria

Not available.

Profondità neve

Not available.

Attività sismica

Città  Distanza Mag. Data & Ora
Non sono state riportate attività sismiche nelle vicinanze.
Minimo Magnitudo Mostrato è 2.5.

Temperature delle acque costiere

Località Temperatura
Nessun dato dalle stazioni

Stazioni meteo nelle vicinanze